sensor_id;sensor_type;location;lat;lon;timestamp;pressure;altitude;pressure_sealevel;temperature;humidity
73429;BME280;61643;49.564;17.412;2024-01-30T00:02:11;100078.22;;;-2.46;100.00
73429;BME280;61643;49.564;17.412;2024-01-30T00:04:37;100071.94;;;-2.66;100.00
73429;BME280;61643;49.564;17.412;2024-01-30T00:07:03;100073.06;;;-2.48;100.00
73429;BME280;61643;49.564;17.412;2024-01-30T00:09:29;100076.41;;;-2.46;100.00
73429;BME280;61643;49.564;17.412;2024-01-30T00:11:55;100080.38;;;-2.52;100.00
73429;BME280;61643;49.564;17.412;2024-01-30T00:14:22;100079.28;;;-2.49;100.00
73429;BME280;61643;49.564;17.412;2024-01-30T00:16:48;100081.81;;;-2.47;100.00
73429;BME280;61643;49.564;17.412;2024-01-30T00:19:14;100078.31;;;-2.48;100.00
73429;BME280;61643;49.564;17.412;2024-01-30T00:21:40;100066.94;;;-2.49;100.00
73429;BME280;61643;49.564;17.412;2024-01-30T00:24:07;100067.66;;;-2.46;100.00
73429;BME280;61643;49.564;17.412;2024-01-30T00:26:33;100068.69;;;-2.59;100.00
73429;BME280;61643;49.564;17.412;2024-01-30T00:28:59;100067.25;;;-2.63;100.00
73429;BME280;61643;49.564;17.412;2024-01-30T00:31:25;100068.69;;;-2.59;100.00
73429;BME280;61643;49.564;17.412;2024-01-30T00:33:51;100073.13;;;-2.59;100.00
73429;BME280;61643;49.564;17.412;2024-01-30T00:36:17;100072.28;;;-2.60;100.00
73429;BME280;61643;49.564;17.412;2024-01-30T00:38:43;100067.00;;;-2.60;100.00
73429;BME280;61643;49.564;17.412;2024-01-30T00:41:09;100074.16;;;-2.51;100.00
73429;BME280;61643;49.564;17.412;2024-01-30T00:43:36;100064.19;;;-2.68;100.00
73429;BME280;61643;49.564;17.412;2024-01-30T00:46:02;100069.47;;;-2.68;100.00
73429;BME280;61643;49.564;17.412;2024-01-30T00:48:27;100066.22;;;-2.71;100.00
73429;BME280;61643;49.564;17.412;2024-01-30T00:50:54;100067.25;;;-2.63;100.00
73429;BME280;61643;49.564;17.412;2024-01-30T00:53:20;100063.28;;;-2.57;100.00
73429;BME280;61643;49.564;17.412;2024-01-30T00:55:46;100066.75;;;-2.57;100.00
73429;BME280;61643;49.564;17.412;2024-01-30T00:58:12;100065.53;;;-2.53;100.00
73429;BME280;61643;49.564;17.412;2024-01-30T01:00:38;100062.44;;;-2.58;100.00
73429;BME280;61643;49.564;17.412;2024-01-30T01:03:04;100060.78;;;-2.59;100.00
73429;BME280;61643;49.564;17.412;2024-01-30T01:05:30;100062.88;;;-2.53;100.00
73429;BME280;61643;49.564;17.412;2024-01-30T01:07:56;100055.97;;;-2.54;100.00
73429;BME280;61643;49.564;17.412;2024-01-30T01:10:22;100059.81;;;-2.58;100.00
73429;BME280;61643;49.564;17.412;2024-01-30T01:12:48;100054.91;;;-2.62;100.00
73429;BME280;61643;49.564;17.412;2024-01-30T01:15:14;100051.38;;;-2.52;100.00
73429;BME280;61643;49.564;17.412;2024-01-30T01:17:40;100045.34;;;-2.63;100.00
73429;BME280;61643;49.564;17.412;2024-01-30T01:20:07;100048.13;;;-2.65;100.00
73429;BME280;61643;49.564;17.412;2024-01-30T01:22:33;100043.84;;;-2.56;100.00
73429;BME280;61643;49.564;17.412;2024-01-30T01:25:00;100049.97;;;-2.56;100.00
73429;BME280;61643;49.564;17.412;2024-01-30T01:27:26;100046.00;;;-2.50;100.00
73429;BME280;61643;49.564;17.412;2024-01-30T01:29:53;100041.78;;;-2.53;100.00
73429;BME280;61643;49.564;17.412;2024-01-30T01:32:19;100040.31;;;-2.45;100.00
73429;BME280;61643;49.564;17.412;2024-01-30T01:34:45;100041.88;;;-2.43;100.00
73429;BME280;61643;49.564;17.412;2024-01-30T01:37:11;100050.63;;;-2.42;100.00
73429;BME280;61643;49.564;17.412;2024-01-30T01:39:37;100037.09;;;-2.49;100.00
73429;BME280;61643;49.564;17.412;2024-01-30T01:42:04;100042.63;;;-2.52;100.00
73429;BME280;61643;49.564;17.412;2024-01-30T01:44:30;100045.66;;;-2.57;100.00
73429;BME280;61643;49.564;17.412;2024-01-30T01:46:56;100048.22;;;-2.45;100.00
73429;BME280;61643;49.564;17.412;2024-01-30T01:49:25;100039.16;;;-2.53;100.00
73429;BME280;61643;49.564;17.412;2024-01-30T01:51:54;100042.31;;;-2.59;100.00
73429;BME280;61643;49.564;17.412;2024-01-30T01:54:22;100043.47;;;-2.52;100.00
73429;BME280;61643;49.564;17.412;2024-01-30T01:56:50;100039.56;;;-2.57;100.00
73429;BME280;61643;49.564;17.412;2024-01-30T01:59:17;100036.94;;;-2.57;100.00
73429;BME280;61643;49.564;17.412;2024-01-30T02:01:44;100039.09;;;-2.62;100.00
73429;BME280;61643;49.564;17.412;2024-01-30T02:04:11;100042.25;;;-2.68;100.00
73429;BME280;61643;49.564;17.412;2024-01-30T02:06:37;100041.91;;;-2.33;100.00
73429;BME280;61643;49.564;17.412;2024-01-30T02:09:04;100037.63;;;-2.04;100.00
73429;BME280;61643;49.564;17.412;2024-01-30T02:11:30;100038.94;;;-1.89;100.00
73429;BME280;61643;49.564;17.412;2024-01-30T02:13:56;100038.66;;;-1.95;100.00
73429;BME280;61643;49.564;17.412;2024-01-30T02:16:22;100037.72;;;-1.85;100.00
73429;BME280;61643;49.564;17.412;2024-01-30T02:18:48;100037.38;;;-1.91;100.00
73429;BME280;61643;49.564;17.412;2024-01-30T02:21:15;100029.19;;;-1.98;100.00
73429;BME280;61643;49.564;17.412;2024-01-30T02:23:43;100031.06;;;-2.10;100.00
73429;BME280;61643;49.564;17.412;2024-01-30T02:26:10;100023.13;;;-2.19;100.00
73429;BME280;61643;49.564;17.412;2024-01-30T02:28:38;100024.84;;;-2.39;100.00
73429;BME280;61643;49.564;17.412;2024-01-30T02:31:04;100025.78;;;-2.40;100.00
73429;BME280;61643;49.564;17.412;2024-01-30T02:33:30;100021.63;;;-2.42;100.00
73429;BME280;61643;49.564;17.412;2024-01-30T02:35:56;100024.91;;;-2.50;100.00
73429;BME280;61643;49.564;17.412;2024-01-30T02:38:22;100021.84;;;-2.45;100.00
73429;BME280;61643;49.564;17.412;2024-01-30T02:40:49;100024.13;;;-2.41;100.00
73429;BME280;61643;49.564;17.412;2024-01-30T02:43:16;100021.22;;;-2.38;100.00
73429;BME280;61643;49.564;17.412;2024-01-30T02:45:42;100028.53;;;-2.41;100.00
73429;BME280;61643;49.564;17.412;2024-01-30T02:48:08;100023.41;;;-2.43;100.00
73429;BME280;61643;49.564;17.412;2024-01-30T02:50:34;100017.16;;;-2.42;100.00
73429;BME280;61643;49.564;17.412;2024-01-30T02:53:00;100021.47;;;-2.41;100.00
73429;BME280;61643;49.564;17.412;2024-01-30T02:55:26;100017.56;;;-2.46;100.00
73429;BME280;61643;49.564;17.412;2024-01-30T02:57:52;100023.50;;;-2.54;100.00
73429;BME280;61643;49.564;17.412;2024-01-30T03:00:19;100016.84;;;-2.49;100.00
73429;BME280;61643;49.564;17.412;2024-01-30T03:02:46;100020.78;;;-2.43;100.00
73429;BME280;61643;49.564;17.412;2024-01-30T03:05:13;100018.84;;;-2.41;100.00
73429;BME280;61643;49.564;17.412;2024-01-30T03:07:39;100022.63;;;-2.34;100.00
73429;BME280;61643;49.564;17.412;2024-01-30T03:10:05;100021.13;;;-2.27;100.00
73429;BME280;61643;49.564;17.412;2024-01-30T03:12:32;100015.63;;;-2.44;100.00
73429;BME280;61643;49.564;17.412;2024-01-30T03:14:58;100018.19;;;-2.33;100.00
73429;BME280;61643;49.564;17.412;2024-01-30T03:17:24;100016.19;;;-2.41;100.00
73429;BME280;61643;49.564;17.412;2024-01-30T03:19:50;100020.78;;;-2.43;100.00
73429;BME280;61643;49.564;17.412;2024-01-30T03:22:16;100029.13;;;-2.38;100.00
73429;BME280;61643;49.564;17.412;2024-01-30T03:24:42;100019.00;;;-2.42;100.00
73429;BME280;61643;49.564;17.412;2024-01-30T03:27:09;100029.34;;;-2.51;100.00
73429;BME280;61643;49.564;17.412;2024-01-30T03:29:34;100020.34;;;-2.69;100.00
73429;BME280;61643;49.564;17.412;2024-01-30T03:32:00;100021.53;;;-2.52;100.00
73429;BME280;61643;49.564;17.412;2024-01-30T03:34:26;100018.22;;;-2.54;100.00
73429;BME280;61643;49.564;17.412;2024-01-30T03:36:52;100020.00;;;-2.55;100.00
73429;BME280;61643;49.564;17.412;2024-01-30T03:39:18;100006.69;;;-2.53;100.00
73429;BME280;61643;49.564;17.412;2024-01-30T03:41:44;100019.19;;;-2.55;100.00
73429;BME280;61643;49.564;17.412;2024-01-30T03:44:11;100017.13;;;-2.52;100.00
73429;BME280;61643;49.564;17.412;2024-01-30T03:46:37;100006.56;;;-2.52;100.00
73429;BME280;61643;49.564;17.412;2024-01-30T03:49:03;100012.06;;;-2.64;100.00
73429;BME280;61643;49.564;17.412;2024-01-30T03:51:29;100008.13;;;-2.70;100.00
73429;BME280;61643;49.564;17.412;2024-01-30T03:53:55;100006.44;;;-2.71;100.00
73429;BME280;61643;49.564;17.412;2024-01-30T03:56:21;100006.63;;;-2.63;100.00
73429;BME280;61643;49.564;17.412;2024-01-30T03:58:47;100010.66;;;-2.68;100.00
73429;BME280;61643;49.564;17.412;2024-01-30T04:01:16;99999.38;;;-2.70;100.00
73429;BME280;61643;49.564;17.412;2024-01-30T04:03:42;100006.28;;;-2.79;100.00
73429;BME280;61643;49.564;17.412;2024-01-30T04:06:09;99997.84;;;-2.73;100.00
73429;BME280;61643;49.564;17.412;2024-01-30T04:08:35;99998.22;;;-2.77;100.00
73429;BME280;61643;49.564;17.412;2024-01-30T04:11:05;100005.88;;;-2.74;100.00
73429;BME280;61643;49.564;17.412;2024-01-30T04:13:32;100001.97;;;-2.80;100.00
73429;BME280;61643;49.564;17.412;2024-01-30T04:16:01;99992.84;;;-2.76;100.00
73429;BME280;61643;49.564;17.412;2024-01-30T04:18:28;99991.41;;;-2.80;100.00
73429;BME280;61643;49.564;17.412;2024-01-30T04:20:54;99996.75;;;-2.70;100.00
73429;BME280;61643;49.564;17.412;2024-01-30T04:23:21;99995.66;;;-2.88;100.00
73429;BME280;61643;49.564;17.412;2024-01-30T04:25:47;99998.59;;;-2.82;100.00
73429;BME280;61643;49.564;17.412;2024-01-30T04:28:13;99993.84;;;-2.88;100.00
73429;BME280;61643;49.564;17.412;2024-01-30T04:30:39;99992.91;;;-2.87;100.00
73429;BME280;61643;49.564;17.412;2024-01-30T04:33:05;99995.59;;;-2.77;100.00
73429;BME280;61643;49.564;17.412;2024-01-30T04:35:31;100001.69;;;-2.77;100.00
73429;BME280;61643;49.564;17.412;2024-01-30T04:37:57;99999.91;;;-2.76;100.00
73429;BME280;61643;49.564;17.412;2024-01-30T04:40:23;99994.81;;;-2.89;100.00
73429;BME280;61643;49.564;17.412;2024-01-30T04:42:49;99996.69;;;-2.80;100.00
73429;BME280;61643;49.564;17.412;2024-01-30T04:45:15;100004.72;;;-2.81;100.00
73429;BME280;61643;49.564;17.412;2024-01-30T04:47:41;100004.66;;;-2.91;100.00
73429;BME280;61643;49.564;17.412;2024-01-30T04:50:07;100000.72;;;-2.97;100.00
73429;BME280;61643;49.564;17.412;2024-01-30T04:52:34;100000.81;;;-2.87;100.00
73429;BME280;61643;49.564;17.412;2024-01-30T04:55:00;100005.81;;;-2.84;100.00
73429;BME280;61643;49.564;17.412;2024-01-30T04:57:26;100017.25;;;-2.74;100.00
73429;BME280;61643;49.564;17.412;2024-01-30T04:59:53;100009.66;;;-2.88;100.00
73429;BME280;61643;49.564;17.412;2024-01-30T05:02:19;100012.22;;;-2.77;100.00
73429;BME280;61643;49.564;17.412;2024-01-30T05:04:45;100013.34;;;-2.79;100.00
73429;BME280;61643;49.564;17.412;2024-01-30T05:07:11;100010.81;;;-2.81;100.00
73429;BME280;61643;49.564;17.412;2024-01-30T05:09:37;100010.28;;;-2.75;100.00
73429;BME280;61643;49.564;17.412;2024-01-30T05:12:03;100010.56;;;-2.99;100.00
73429;BME280;61643;49.564;17.412;2024-01-30T05:14:29;100004.97;;;-2.84;100.00
73429;BME280;61643;49.564;17.412;2024-01-30T05:16:55;100011.34;;;-2.87;100.00
73429;BME280;61643;49.564;17.412;2024-01-30T05:19:21;100015.34;;;-3.04;100.00
73429;BME280;61643;49.564;17.412;2024-01-30T05:21:49;100015.22;;;-3.23;100.00
73429;BME280;61643;49.564;17.412;2024-01-30T05:24:15;100016.06;;;-3.02;100.00
73429;BME280;61643;49.564;17.412;2024-01-30T05:26:41;100018.81;;;-3.03;100.00
73429;BME280;61643;49.564;17.412;2024-01-30T05:29:07;100018.09;;;-2.94;100.00
73429;BME280;61643;49.564;17.412;2024-01-30T05:31:34;100023.97;;;-3.02;100.00
73429;BME280;61643;49.564;17.412;2024-01-30T05:34:00;100019.81;;;-2.83;100.00
73429;BME280;61643;49.564;17.412;2024-01-30T05:36:26;100013.13;;;-2.87;100.00
73429;BME280;61643;49.564;17.412;2024-01-30T05:38:52;100016.72;;;-2.88;100.00
73429;BME280;61643;49.564;17.412;2024-01-30T05:41:19;100010.63;;;-2.89;100.00
73429;BME280;61643;49.564;17.412;2024-01-30T05:43:46;100019.25;;;-2.87;100.00
73429;BME280;61643;49.564;17.412;2024-01-30T05:46:12;100018.13;;;-2.84;100.00
73429;BME280;61643;49.564;17.412;2024-01-30T05:48:38;100023.09;;;-2.91;100.00
73429;BME280;61643;49.564;17.412;2024-01-30T05:51:04;100010.22;;;-3.05;100.00
73429;BME280;61643;49.564;17.412;2024-01-30T05:53:32;100006.63;;;-3.04;100.00
73429;BME280;61643;49.564;17.412;2024-01-30T05:55:59;100005.03;;;-2.95;100.00
73429;BME280;61643;49.564;17.412;2024-01-30T05:58:25;100003.59;;;-3.00;100.00
73429;BME280;61643;49.564;17.412;2024-01-30T06:00:51;100019.28;;;-2.98;100.00
73429;BME280;61643;49.564;17.412;2024-01-30T06:03:17;100022.19;;;-3.01;100.00
73429;BME280;61643;49.564;17.412;2024-01-30T06:05:43;100026.34;;;-2.99;100.00
73429;BME280;61643;49.564;17.412;2024-01-30T06:08:09;100017.91;;;-3.13;100.00
73429;BME280;61643;49.564;17.412;2024-01-30T06:10:35;100026.16;;;-3.07;100.00
73429;BME280;61643;49.564;17.412;2024-01-30T06:13:01;100019.81;;;-3.04;100.00
73429;BME280;61643;49.564;17.412;2024-01-30T06:15:28;100031.28;;;-3.05;100.00
73429;BME280;61643;49.564;17.412;2024-01-30T06:17:55;100023.47;;;-2.95;100.00
73429;BME280;61643;49.564;17.412;2024-01-30T06:20:21;100023.25;;;-3.04;100.00
73429;BME280;61643;49.564;17.412;2024-01-30T06:22:47;100016.50;;;-2.97;100.00
73429;BME280;61643;49.564;17.412;2024-01-30T06:25:13;100013.13;;;-3.08;100.00
73429;BME280;61643;49.564;17.412;2024-01-30T06:27:39;100023.19;;;-3.13;100.00
73429;BME280;61643;49.564;17.412;2024-01-30T06:30:06;100020.00;;;-2.96;100.00
73429;BME280;61643;49.564;17.412;2024-01-30T06:32:32;100016.78;;;-3.00;100.00
73429;BME280;61643;49.564;17.412;2024-01-30T06:35:00;100021.66;;;-2.95;100.00
73429;BME280;61643;49.564;17.412;2024-01-30T06:37:26;100011.03;;;-2.93;100.00
73429;BME280;61643;49.564;17.412;2024-01-30T06:39:52;100022.09;;;-3.11;100.00
73429;BME280;61643;49.564;17.412;2024-01-30T06:42:19;100023.25;;;-3.04;100.00
73429;BME280;61643;49.564;17.412;2024-01-30T06:44:45;100029.81;;;-2.98;100.00
73429;BME280;61643;49.564;17.412;2024-01-30T06:47:11;100018.34;;;-2.97;100.00
73429;BME280;61643;49.564;17.412;2024-01-30T06:49:37;100022.50;;;-2.94;100.00
73429;BME280;61643;49.564;17.412;2024-01-30T06:52:07;100016.41;;;-2.95;100.00
73429;BME280;61643;49.564;17.412;2024-01-30T06:54:34;100027.56;;;-2.82;100.00
73429;BME280;61643;49.564;17.412;2024-01-30T06:57:00;100029.63;;;-2.85;100.00
73429;BME280;61643;49.564;17.412;2024-01-30T06:59:26;100034.31;;;-2.89;100.00
73429;BME280;61643;49.564;17.412;2024-01-30T07:01:52;100034.53;;;-2.81;100.00
73429;BME280;61643;49.564;17.412;2024-01-30T07:04:18;100036.84;;;-2.67;100.00
73429;BME280;61643;49.564;17.412;2024-01-30T07:06:44;100029.16;;;-2.59;100.00
73429;BME280;61643;49.564;17.412;2024-01-30T07:09:10;100039.63;;;-2.47;100.00
73429;BME280;61643;49.564;17.412;2024-01-30T07:11:36;100042.56;;;-2.41;100.00
73429;BME280;61643;49.564;17.412;2024-01-30T07:14:02;100035.19;;;-2.47;100.00
73429;BME280;61643;49.564;17.412;2024-01-30T07:16:31;100039.97;;;-2.31;100.00
73429;BME280;61643;49.564;17.412;2024-01-30T07:18:57;100040.25;;;-2.34;100.00
73429;BME280;61643;49.564;17.412;2024-01-30T07:21:23;100036.56;;;-2.22;100.00
73429;BME280;61643;49.564;17.412;2024-01-30T07:23:54;100037.75;;;-2.06;100.00
73429;BME280;61643;49.564;17.412;2024-01-30T07:26:21;100037.25;;;-2.00;100.00
73429;BME280;61643;49.564;17.412;2024-01-30T07:28:47;100034.63;;;-1.90;100.00
73429;BME280;61643;49.564;17.412;2024-01-30T07:31:13;100036.91;;;-1.76;100.00
73429;BME280;61643;49.564;17.412;2024-01-30T07:33:38;100034.59;;;-1.60;100.00
73429;BME280;61643;49.564;17.412;2024-01-30T07:36:05;100035.88;;;-1.44;100.00
73429;BME280;61643;49.564;17.412;2024-01-30T07:38:34;100035.63;;;-1.32;100.00
73429;BME280;61643;49.564;17.412;2024-01-30T07:41:00;100029.25;;;-1.20;100.00
73429;BME280;61643;49.564;17.412;2024-01-30T07:43:26;100034.25;;;-1.07;100.00
73429;BME280;61643;49.564;17.412;2024-01-30T07:45:52;100023.69;;;-0.98;100.00
73429;BME280;61643;49.564;17.412;2024-01-30T07:48:18;100026.19;;;-0.86;100.00
73429;BME280;61643;49.564;17.412;2024-01-30T07:50:44;100035.09;;;-0.78;100.00
73429;BME280;61643;49.564;17.412;2024-01-30T07:53:10;100028.16;;;-0.69;100.00
73429;BME280;61643;49.564;17.412;2024-01-30T07:55:36;100035.50;;;-0.63;100.00
73429;BME280;61643;49.564;17.412;2024-01-30T07:58:02;100031.72;;;-0.61;100.00
73429;BME280;61643;49.564;17.412;2024-01-30T08:00:29;100032.56;;;-0.60;100.00
73429;BME280;61643;49.564;17.412;2024-01-30T08:02:55;100035.75;;;-0.57;100.00
73429;BME280;61643;49.564;17.412;2024-01-30T08:05:22;100036.59;;;-0.56;100.00
73429;BME280;61643;49.564;17.412;2024-01-30T08:07:49;100034.81;;;-0.56;100.00
73429;BME280;61643;49.564;17.412;2024-01-30T08:10:15;100044.50;;;-0.46;100.00
73429;BME280;61643;49.564;17.412;2024-01-30T08:12:41;100041.03;;;-0.47;100.00
73429;BME280;61643;49.564;17.412;2024-01-30T08:15:07;100044.25;;;-0.43;100.00
73429;BME280;61643;49.564;17.412;2024-01-30T08:17:34;100040.06;;;-0.36;100.00
73429;BME280;61643;49.564;17.412;2024-01-30T08:20:00;100046.72;;;-0.32;100.00
73429;BME280;61643;49.564;17.412;2024-01-30T08:22:26;100049.78;;;-0.27;100.00
73429;BME280;61643;49.564;17.412;2024-01-30T08:24:52;100042.81;;;-0.19;100.00
73429;BME280;61643;49.564;17.412;2024-01-30T08:27:18;100043.66;;;-0.18;100.00
73429;BME280;61643;49.564;17.412;2024-01-30T08:29:44;100050.03;;;-0.11;100.00
73429;BME280;61643;49.564;17.412;2024-01-30T08:32:10;100054.88;;;-0.07;100.00
73429;BME280;61643;49.564;17.412;2024-01-30T08:34:35;100056.13;;;-0.01;100.00
73429;BME280;61643;49.564;17.412;2024-01-30T08:37:01;100057.50;;;0.03;100.00
73429;BME280;61643;49.564;17.412;2024-01-30T08:39:27;100054.84;;;0.03;100.00
73429;BME280;61643;49.564;17.412;2024-01-30T08:41:53;100052.47;;;0.10;100.00
73429;BME280;61643;49.564;17.412;2024-01-30T08:44:19;100048.69;;;0.12;100.00
73429;BME280;61643;49.564;17.412;2024-01-30T08:46:45;100052.56;;;0.18;100.00
73429;BME280;61643;49.564;17.412;2024-01-30T08:49:13;100055.31;;;0.26;100.00
73429;BME280;61643;49.564;17.412;2024-01-30T08:51:39;100048.06;;;0.28;100.00
73429;BME280;61643;49.564;17.412;2024-01-30T08:54:05;100045.66;;;0.34;100.00
73429;BME280;61643;49.564;17.412;2024-01-30T08:56:31;100047.03;;;0.38;100.00
73429;BME280;61643;49.564;17.412;2024-01-30T08:58:57;100057.03;;;0.44;100.00
73429;BME280;61643;49.564;17.412;2024-01-30T09:01:23;100051.16;;;0.51;100.00
73429;BME280;61643;49.564;17.412;2024-01-30T09:03:50;100052.38;;;0.56;100.00
73429;BME280;61643;49.564;17.412;2024-01-30T09:06:16;100050.94;;;0.62;100.00
73429;BME280;61643;49.564;17.412;2024-01-30T09:08:42;100052.31;;;0.66;100.00
73429;BME280;61643;49.564;17.412;2024-01-30T09:11:09;100047.09;;;0.74;100.00
73429;BME280;61643;49.564;17.412;2024-01-30T09:13:36;100046.50;;;0.80;100.00
73429;BME280;61643;49.564;17.412;2024-01-30T09:16:02;100052.63;;;0.80;100.00
73429;BME280;61643;49.564;17.412;2024-01-30T09:18:28;100052.19;;;0.85;100.00
73429;BME280;61643;49.564;17.412;2024-01-30T09:20:54;100052.88;;;0.87;100.00
73429;BME280;61643;49.564;17.412;2024-01-30T09:23:20;100052.44;;;0.91;100.00
73429;BME280;61643;49.564;17.412;2024-01-30T09:25:46;100051.00;;;0.97;100.00
73429;BME280;61643;49.564;17.412;2024-01-30T09:28:12;100041.91;;;0.99;100.00
73429;BME280;61643;49.564;17.412;2024-01-30T09:30:38;100054.72;;;1.04;100.00
73429;BME280;61643;49.564;17.412;2024-01-30T09:33:05;100044.78;;;1.06;100.00
73429;BME280;61643;49.564;17.412;2024-01-30T09:35:31;100047.00;;;1.11;100.00
73429;BME280;61643;49.564;17.412;2024-01-30T09:37:56;100051.53;;;1.18;100.00
73429;BME280;61643;49.564;17.412;2024-01-30T09:40:23;100046.06;;;1.20;100.00
73429;BME280;61643;49.564;17.412;2024-01-30T09:42:50;100042.81;;;1.26;100.00
73429;BME280;61643;49.564;17.412;2024-01-30T09:45:20;100048.66;;;1.29;100.00
73429;BME280;61643;49.564;17.412;2024-01-30T09:47:49;100045.00;;;1.30;100.00
73429;BME280;61643;49.564;17.412;2024-01-30T09:50:15;100041.38;;;1.31;100.00
73429;BME280;61643;49.564;17.412;2024-01-30T09:52:46;100042.72;;;1.35;100.00
73429;BME280;61643;49.564;17.412;2024-01-30T09:55:12;100048.41;;;1.40;100.00
73429;BME280;61643;49.564;17.412;2024-01-30T09:57:38;100045.47;;;1.43;100.00
73429;BME280;61643;49.564;17.412;2024-01-30T10:00:05;100042.63;;;1.45;100.00
73429;BME280;61643;49.564;17.412;2024-01-30T10:02:35;100046.50;;;1.51;100.00
73429;BME280;61643;49.564;17.412;2024-01-30T10:05:02;100044.50;;;1.53;100.00
73429;BME280;61643;49.564;17.412;2024-01-30T10:07:28;100036.25;;;1.56;100.00
73429;BME280;61643;49.564;17.412;2024-01-30T10:09:54;100035.78;;;1.60;100.00
73429;BME280;61643;49.564;17.412;2024-01-30T10:12:22;100036.31;;;1.64;100.00
73429;BME280;61643;49.564;17.412;2024-01-30T10:14:49;100027.22;;;1.66;100.00
73429;BME280;61643;49.564;17.412;2024-01-30T10:17:14;100034.69;;;1.71;100.00
73429;BME280;61643;49.564;17.412;2024-01-30T10:19:41;100025.44;;;1.75;100.00
73429;BME280;61643;49.564;17.412;2024-01-30T10:22:08;100016.81;;;1.73;100.00
73429;BME280;61643;49.564;17.412;2024-01-30T10:24:36;100016.50;;;1.76;100.00
73429;BME280;61643;49.564;17.412;2024-01-30T10:27:02;100021.34;;;1.80;100.00
73429;BME280;61643;49.564;17.412;2024-01-30T10:29:29;100013.91;;;1.84;100.00
73429;BME280;61643;49.564;17.412;2024-01-30T10:32:02;100017.59;;;1.91;100.00
73429;BME280;61643;49.564;17.412;2024-01-30T10:34:28;100015.44;;;1.94;100.00
73429;BME280;61643;49.564;17.412;2024-01-30T10:37:06;100006.19;;;1.98;100.00
73429;BME280;61643;49.564;17.412;2024-01-30T10:39:38;100004.03;;;2.02;100.00
73429;BME280;61643;49.564;17.412;2024-01-30T10:42:05;99999.56;;;2.03;100.00
73429;BME280;61643;49.564;17.412;2024-01-30T10:47:29;100003.91;;;2.12;100.00
73429;BME280;61643;49.564;17.412;2024-01-30T10:49:56;99993.13;;;2.13;100.00
73429;BME280;61643;49.564;17.412;2024-01-30T10:52:23;99999.13;;;2.15;100.00
73429;BME280;61643;49.564;17.412;2024-01-30T10:54:54;99991.50;;;2.20;100.00
73429;BME280;61643;49.564;17.412;2024-01-30T10:57:23;99975.25;;;2.23;100.00
73429;BME280;61643;49.564;17.412;2024-01-30T10:59:49;99983.88;;;2.25;100.00
73429;BME280;61643;49.564;17.412;2024-01-30T11:02:18;99973.94;;;2.27;100.00
73429;BME280;61643;49.564;17.412;2024-01-30T11:04:45;99977.75;;;2.33;100.00
73429;BME280;61643;49.564;17.412;2024-01-30T11:07:18;99973.78;;;2.37;100.00
73429;BME280;61643;49.564;17.412;2024-01-30T11:12:25;99962.03;;;2.47;100.00
73429;BME280;61643;49.564;17.412;2024-01-30T11:15:13;99964.22;;;2.52;100.00
73429;BME280;61643;49.564;17.412;2024-01-30T11:20:22;99960.56;;;2.53;100.00
73429;BME280;61643;49.564;17.412;2024-01-30T11:22:53;99956.56;;;2.57;100.00
73429;BME280;61643;49.564;17.412;2024-01-30T11:25:23;99956.75;;;2.56;100.00
73429;BME280;61643;49.564;17.412;2024-01-30T11:27:51;99956.06;;;2.62;100.00
73429;BME280;61643;49.564;17.412;2024-01-30T11:30:23;99947.59;;;2.58;100.00
73429;BME280;61643;49.564;17.412;2024-01-30T11:35:37;99939.16;;;2.63;100.00
73429;BME280;61643;49.564;17.412;2024-01-30T11:38:05;99943.63;;;2.70;100.00
73429;BME280;61643;49.564;17.412;2024-01-30T11:40:32;99937.84;;;2.75;100.00
73429;BME280;61643;49.564;17.412;2024-01-30T11:43:00;99939.66;;;2.82;100.00
73429;BME280;61643;49.564;17.412;2024-01-30T11:45:30;99935.88;;;2.93;100.00
73429;BME280;61643;49.564;17.412;2024-01-30T11:47:57;99931.69;;;2.98;100.00
73429;BME280;61643;49.564;17.412;2024-01-30T11:50:25;99927.84;;;3.01;100.00
73429;BME280;61643;49.564;17.412;2024-01-30T11:52:52;99924.38;;;3.01;100.00
73429;BME280;61643;49.564;17.412;2024-01-30T11:55:18;99926.38;;;3.07;100.00
73429;BME280;61643;49.564;17.412;2024-01-30T11:57:45;99922.06;;;3.14;100.00
73429;BME280;61643;49.564;17.412;2024-01-30T12:00:15;99922.69;;;3.24;100.00
73429;BME280;61643;49.564;17.412;2024-01-30T12:02:42;99918.22;;;3.24;100.00
73429;BME280;61643;49.564;17.412;2024-01-30T12:05:09;99905.56;;;3.26;100.00
73429;BME280;61643;49.564;17.412;2024-01-30T12:07:35;99909.41;;;3.32;100.00
73429;BME280;61643;49.564;17.412;2024-01-30T12:10:02;99909.19;;;3.33;100.00
73429;BME280;61643;49.564;17.412;2024-01-30T12:12:29;99898.91;;;3.30;100.00
73429;BME280;61643;49.564;17.412;2024-01-30T12:14:56;99897.91;;;3.31;100.00
73429;BME280;61643;49.564;17.412;2024-01-30T12:17:32;99892.41;;;3.33;100.00
73429;BME280;61643;49.564;17.412;2024-01-30T12:20:08;99897.56;;;3.34;100.00
73429;BME280;61643;49.564;17.412;2024-01-30T12:22:44;99896.72;;;3.34;100.00
73429;BME280;61643;49.564;17.412;2024-01-30T12:25:13;99891.06;;;3.37;100.00
73429;BME280;61643;49.564;17.412;2024-01-30T12:27:41;99889.44;;;3.36;100.00
73429;BME280;61643;49.564;17.412;2024-01-30T12:30:09;99888.09;;;3.32;100.00
73429;BME280;61643;49.564;17.412;2024-01-30T12:32:40;99888.09;;;3.32;100.00
73429;BME280;61643;49.564;17.412;2024-01-30T12:35:13;99877.13;;;3.35;100.00
73429;BME280;61643;49.564;17.412;2024-01-30T12:37:41;99882.25;;;3.36;100.00
73429;BME280;61643;49.564;17.412;2024-01-30T12:40:07;99870.63;;;3.37;100.00
73429;BME280;61643;49.564;17.412;2024-01-30T12:42:34;99869.78;;;3.37;100.00
73429;BME280;61643;49.564;17.412;2024-01-30T12:45:00;99874.78;;;3.40;100.00